• Join FlightAware (Why Join?)
  • Login
  • US Flag 
06:33AM EST


 

Airport Tracker/Info


-or-


 

Live Flight TrackerFlight Track Log ✈ EGF2976 ✈ 06-May-2014 ✈ KORD - KMCI

Flight Track Log - Related Links

Times and Time Zones

All times are in EDT time to prevent confusion due to time zone crossing. See the EGF2976 flight status page for this flight to view local times or setup timezone preferences in your user account.

Time Position Orientation Groundspeed Altitude Reporting Facility
EDT Latitude Longitude Course Direction KTS MPH feet Rate Location/Type
05:00PM 41.8629 -88.2384 245° Southwest  Level Estimated
05:01PM 41.8239 -88.3485 245° Southwest  Level Estimated
05:02PM 41.7848 -88.4584 245° Southwest  Level Estimated
05:03PM 41.7455 -88.5682 244° Southwest  Level Estimated
05:04PM 41.7062 -88.6779 244° Southwest  Level Estimated
05:05PM 41.6667 -88.7874 244° Southwest  Level Estimated
05:06PM 41.6272 -88.8968 244° Southwest  Level Estimated
05:07PM 41.5876 -89.0061 244° Southwest  Level Estimated
05:08PM 41.5478 -89.1152 244° Southwest  Level Estimated
05:09PM 41.5079 -89.2242 244° Southwest  Level Estimated
05:10PM 41.4680 -89.3331 244° Southwest  Level Estimated
05:11PM 41.4279 -89.4418 244° Southwest  Level Estimated
05:12PM 41.3878 -89.5504 244° Southwest  Level Estimated
05:13PM 41.3475 -89.6589 244° Southwest  Level Estimated
05:14PM 41.3071 -89.7672 244° Southwest  Level Estimated
05:15PM 41.2667 -89.8754 244° Southwest  Level Estimated
05:16PM 41.2261 -89.9835 244° Southwest  Level Estimated
05:17PM 41.1854 -90.0914 243° Southwest  Level Estimated
05:18PM 41.1447 -90.1992 243° Southwest  Level Estimated
05:19PM 41.1038 -90.3068 243° Southwest  Level Estimated
05:20PM 41.0628 -90.4144 243° Southwest  Level Estimated
05:21PM 41.0218 -90.5218 243° Southwest  Level Estimated
05:22PM 40.9806 -90.6290 243° Southwest  Level Estimated
05:23PM 40.9393 -90.7361 243° Southwest  Level Estimated
05:24PM 40.8980 -90.8431 243° Southwest  Level Estimated
05:25PM 40.8565 -90.9500 243° Southwest  Level Estimated
05:26PM 40.8149 -91.0567 243° Southwest  Level Estimated
05:27PM 40.7733 -91.1633 243° Southwest  Level Estimated
05:28PM 40.7315 -91.2697 243° Southwest  Level Estimated
05:29PM 40.6897 -91.3760 243° Southwest  Level Estimated
05:30PM 40.6477 -91.4822 243° Southwest  Level Estimated
05:31PM 40.6056 -91.5883 242° Southwest  Level Estimated
05:32PM 40.5635 -91.6942 242° Southwest  Level Estimated
05:33PM 40.5212 -91.8000 242° Southwest  Level Estimated
05:34PM 40.4789 -91.9056 242° Southwest  Level Estimated
05:35PM 40.4365 -92.0111 242° Southwest  Level Estimated
05:36PM 40.3939 -92.1165 242° Southwest  Level Estimated
05:37PM 40.3513 -92.2218 242° Southwest  Level Estimated
05:38PM 40.3086 -92.3269 242° Southwest  Level Estimated
05:39PM 40.2658 -92.4319 242° Southwest  Level Estimated
05:40PM 40.2228 -92.5367 242° Southwest  Level Estimated
05:41PM 40.1798 -92.6414 242° Southwest  Level Estimated
05:42PM 40.1367 -92.7460 242° Southwest  Level Estimated
05:43PM 40.0935 -92.8505 242° Southwest  Level Estimated
05:44PM 40.0502 -92.9548 242° Southwest  Level Estimated
05:45PM 40.0069 -93.0590 241° Southwest  Level Estimated
05:46PM 39.9634 -93.1630 241° Southwest  Level Estimated
05:47PM 39.9198 -93.2670 241° Southwest  Level Estimated
05:48PM 39.8761 -93.3708 241° Southwest  Level Estimated
05:49PM 39.8324 -93.4744 241° Southwest  Level Estimated
05:50PM 39.7885 -93.5779 241° Southwest  Level Estimated
05:51PM 39.7446 -93.6813 241° Southwest  Level Estimated
05:52PM 39.7006 -93.7846 241° Southwest  Level Estimated
05:53PM 39.6564 -93.8877 241° Southwest  Level Estimated
05:54PM 39.6122 -93.9907 241° Southwest  Level Estimated
05:55PM 39.5679 -94.0936 241° Southwest  Level Estimated
05:56PM 39.5235 -94.1963 241° Southwest  Level Estimated
05:57PM 39.4790 -94.2989 241° Southwest  Level Estimated
05:58PM 39.4345 -94.4014 241° Southwest  Level Estimated
05:59PM 39.3898 -94.5037 241° Southwest  Level Estimated
06:00PM 39.3450 -94.6059 241° Southwest  Level Estimated
06:01PM 39.3002 -94.7080 240° Southwest  Level Estimated
06:02PM 39.2976 -94.7139 240° Southwest  Level Estimated
06:03PM 39.2976 -94.7139 North  Level Estimated
06:04PM 39.2976 -94.7139 North  Level Estimated
06:05PM 39.2976 -94.7139 North  Level Estimated
06:06PM 39.2976 -94.7139 North  Level Estimated
06:07PM 39.2976 -94.7139 North  Level Estimated
06:08PM 39.2976 -94.7139 North  Level Estimated
06:09PM 39.2976 -94.7139 North  Level Estimated
06:10PM 39.2976 -94.7139 North  Level Estimated
06:11PM 39.2976 -94.7139 North  Level Estimated
06:12PM 39.2976 -94.7139 North  Level Estimated
06:13PM 39.2976 -94.7139 North  Level Estimated
06:14PM 39.2976 -94.7139 North  Level Estimated
06:15PM 39.2976 -94.7139 North  Level Estimated
06:16PM 39.2976 -94.7139 North  Level Estimated
06:17PM 39.2976 -94.7139 North  Level Estimated